Time;durP1;ratioP1;P1;durP2;ratioP2;P2;SDS_P1;SDS_P2;PMS_P1;PMS_P2;Temp;Humidity;BMP_temperature;BMP_pressure;BME280_temperature;BME280_humidity;BME280_pressure;Samples;Min_cycle;Max_cycle;Signal;HPM_P1;HPM_P2
2022/01/12 00:02:06;;;;;;;4.80;2.37;;;;;;;2.22;73.52;102190.97;4900484;29;20113;-74
2022/01/12 00:04:32;;;;;;;6.03;2.13;;;;;;;2.16;73.34;102177.25;4900380;29;20265;-74
2022/01/12 00:06:57;;;;;;;6.17;2.00;;;;;;;2.09;73.52;102168.88;4899838;29;20048;-75
2022/01/12 00:09:23;;;;;;;5.20;1.95;;;;;;;2.06;73.64;102159.28;4898894;29;20295;-75
2022/01/12 00:11:49;;;;;;;4.37;1.90;;;;;;;2.13;73.64;102177.50;4900274;29;20037;-75
2022/01/12 00:14:14;;;;;;;6.38;1.83;;;;;;;2.06;73.83;102175.25;4899845;29;20375;-74
2022/01/12 00:16:46;;;;;;;5.80;2.65;;;;;;;2.04;73.64;102163.88;4900007;29;20524;-75
2022/01/12 00:19:11;;;;;;;4.20;1.90;;;;;;;2.09;73.38;102164.41;4899875;29;20116;-74
2022/01/12 00:21:36;;;;;;;4.00;1.80;;;;;;;2.08;73.66;102176.00;4900141;29;20124;-74
2022/01/12 00:24:02;;;;;;;5.67;1.67;;;;;;;2.08;73.74;102169.81;4899884;29;20351;-74
2022/01/12 00:34:23;;;;;;;6.15;2.22;;;;;;;2.15;73.29;102173.75;4900858;29;20111;-74
2022/01/12 00:36:48;;;;;;;8.23;2.28;;;;;;;2.12;73.22;102173.97;4900460;29;20464;-74
2022/01/12 00:39:14;;;;;;;6.05;2.10;;;;;;;2.13;73.31;102180.16;4899849;29;20032;-75
2022/01/12 00:41:41;;;;;;;4.82;1.85;;;;;;;2.14;73.24;102179.19;4882809;29;20037;-74
2022/01/12 00:44:09;;;;;;;6.72;2.25;;;;;;;2.13;73.10;102198.75;4898932;29;20033;-74
2022/01/12 00:46:36;;;;;;;7.18;2.60;;;;;;;2.13;73.07;102209.41;4899737;29;20036;-74
2022/01/12 00:49:01;;;;;;;7.38;3.08;;;;;;;2.16;73.23;102214.47;4899472;29;20039;-74
2022/01/12 00:51:31;;;;;;;7.38;2.42;;;;;;;2.18;73.00;102207.25;4882755;29;20107;-74
2022/01/12 00:53:57;;;;;;;6.68;2.35;;;;;;;2.19;73.12;102200.97;4899904;29;20044;-74
2022/01/12 00:56:23;;;;;;;4.45;1.70;;;;;;;2.16;72.89;102191.41;4899971;29;20473;-75
2022/01/12 00:58:50;;;;;;;4.78;1.80;;;;;;;2.16;72.38;102196.72;4900631;29;20511;-75
2022/01/12 01:01:18;;;;;;;5.20;1.73;;;;;;;2.13;72.79;102194.28;4899986;29;20092;-74
2022/01/12 01:03:43;;;;;;;6.32;2.05;;;;;;;2.11;72.59;102198.88;4900178;29;20035;-74
2022/01/12 01:06:11;;;;;;;4.18;1.65;;;;;;;2.15;73.19;102208.31;4899287;29;20041;-75
2022/01/12 01:08:36;;;;;;;4.10;1.73;;;;;;;2.10;73.01;102210.47;4899434;29;20029;-74
2022/01/12 01:11:02;;;;;;;4.90;1.85;;;;;;;2.08;73.45;102207.91;4899283;29;20079;-74
2022/01/12 01:13:44;;;;;;;3.88;1.45;;;;;;;2.08;73.42;102229.19;4899077;29;20044;-74
2022/01/12 01:16:23;;;;;;;4.38;2.05;;;;;;;2.11;73.19;102236.09;4898937;29;20039;-74
2022/01/12 01:27:00;;;;;;;5.57;1.90;;;;;;;2.13;73.47;102246.63;4898603;29;20043;-75
2022/01/12 01:29:26;;;;;;;6.55;1.90;;;;;;;2.15;73.05;102237.56;4898833;29;20024;-74
2022/01/12 01:31:52;;;;;;;;;;;;;;;2.13;73.05;102243.97;4899298;29;20399;-74
2022/01/12 01:34:17;;;;;;;6.00;1.92;;;;;;;2.17;73.06;102250.75;4898666;29;19917;-74
2022/01/12 01:36:52;;;;;;;6.25;2.45;;;;;;;2.20;72.94;102258.53;4898277;29;20092;-74
2022/01/12 01:39:20;;;;;;;5.47;1.60;;;;;;;2.21;72.97;102258.41;4898682;29;20033;-74
2022/01/12 01:42:12;;;;;;;6.68;1.83;;;;;;;2.22;73.13;102265.44;4898373;29;20037;-74
2022/01/12 01:55:17;;;;;;;4.68;1.95;;;;;;;2.21;72.88;102268.22;4898177;29;20090;-75
2022/01/12 01:57:42;;;;;;;4.93;1.90;;;;;;;2.18;72.93;102279.06;4898080;29;20457;-74
2022/01/12 02:00:17;;;;;;;4.60;1.67;;;;;;;2.22;73.14;102286.72;4898603;29;20037;-75
2022/01/12 02:02:44;;;;;;;4.90;1.77;;;;;;;2.20;73.03;102282.47;4898351;29;20043;-75
2022/01/12 02:05:11;;;;;;;4.53;1.73;;;;;;;2.21;73.06;102284.16;4897954;29;20459;-75
2022/01/12 02:07:37;;;;;;;5.18;2.13;;;;;;;2.19;73.09;102275.44;4897823;29;20464;-75
2022/01/12 02:10:03;;;;;;;6.53;2.28;;;;;;;2.21;73.38;102276.19;4897892;29;20037;-75
2022/01/12 02:12:30;;;;;;;6.00;2.00;;;;;;;2.17;73.23;102272.03;4897963;29;20043;-74
2022/01/12 02:14:57;;;;;;;7.22;2.15;;;;;;;2.13;73.42;102257.25;4898076;29;20047;-74
2022/01/12 02:17:29;;;;;;;5.13;1.90;;;;;;;2.11;73.83;102240.56;4897845;29;20061;-74
2022/01/12 02:35:12;;;;;;;6.55;1.90;;;;;;;2.12;73.88;102237.78;4898449;29;20133;-74
2022/01/12 02:35:15;;;;;;;6.75;2.08;;;;;;;2.02;73.79;102226.06;4897809;29;20052;-74
2022/01/12 02:36:33;;;;;;;5.20;1.77;;;;;;;1.94;74.41;102217.78;4897646;29;20035;-74
2022/01/12 02:41:44;;;;;;;6.38;1.90;;;;;;;1.91;74.57;102224.16;4897654;29;20048;-74
2022/01/12 02:54:51;;;;;;;6.20;2.15;;;;;;;1.93;74.29;102248.84;4897758;29;20036;-74
2022/01/12 02:57:17;;;;;;;4.47;1.80;;;;;;;1.94;74.31;102249.69;4897977;29;20089;-74
2022/01/12 03:02:37;;;;;;;6.40;2.15;;;;;;;1.95;74.78;102251.41;4897694;29;20403;-74
2022/01/12 03:07:37;;;;;;;5.05;1.70;;;;;;;1.91;74.72;102224.16;4898206;29;20060;-75
2022/01/12 03:10:08;;;;;;;4.97;1.85;;;;;;;1.90;74.48;102234.91;4901430;29;20039;-75
2022/01/12 03:12:37;;;;;;;8.93;2.28;;;;;;;1.94;74.56;102233.75;4884531;29;20052;-75
2022/01/12 03:15:03;;;;;;;6.20;1.80;;;;;;;1.96;74.15;102226.53;4901165;29;20064;-75
2022/01/12 03:17:28;;;;;;;;;;;;;;;1.97;74.35;102222.91;4884684;29;20082;-75
2022/01/12 03:19:54;;;;;;;4.72;1.73;;;;;;;1.97;74.53;102220.25;4901386;29;20004;-75
2022/01/12 03:22:19;;;;;;;5.97;2.03;;;;;;;2.03;74.53;102228.63;4900715;29;20047;-75
2022/01/12 03:24:48;;;;;;;5.40;2.10;;;;;;;2.04;74.27;102229.47;4900971;29;20657;-76
2022/01/12 03:27:15;;;;;;;5.82;2.03;;;;;;;2.02;74.44;102226.94;4900650;29;20052;-75
2022/01/12 03:29:42;;;;;;;6.70;2.55;;;;;;;2.03;74.19;102246.41;4900952;29;20028;-75
2022/01/12 03:32:12;;;;;;;7.50;2.13;;;;;;;2.06;73.81;102259.47;4900609;29;20063;-75
2022/01/12 03:34:41;;;;;;;5.65;2.28;;;;;;;2.08;74.13;102266.41;4901000;29;20037;-75
2022/01/12 03:37:38;;;;;;;6.60;2.75;;;;;;;2.13;73.71;102279.38;4900719;29;20032;-74
2022/01/12 03:40:02;;;;;;;6.13;2.20;;;;;;;2.31;73.97;102285.25;4900218;29;20396;-74
2022/01/12 03:42:27;;;;;;;6.82;1.73;;;;;;;2.29;73.58;102282.69;4900662;29;20068;-74
2022/01/12 03:44:53;;;;;;;5.97;2.57;;;;;;;2.22;73.41;102281.41;4900294;29;20459;-75
2022/01/12 03:47:18;;;;;;;7.15;2.55;;;;;;;2.24;73.64;102289.28;4900952;29;20428;-75
2022/01/12 03:49:46;;;;;;;6.03;1.90;;;;;;;2.20;72.84;102285.97;4900472;29;20041;-74
2022/01/12 03:52:12;;;;;;;7.45;2.10;;;;;;;2.19;73.37;102286.94;4900587;29;20461;-74
2022/01/12 03:54:38;;;;;;;4.30;2.30;;;;;;;2.21;73.72;102284.16;4900563;29;20087;-75
2022/01/12 03:57:04;;;;;;;8.05;2.42;;;;;;;2.22;73.66;102277.88;4900500;29;20041;-74
2022/01/12 03:59:29;;;;;;;7.25;2.10;;;;;;;2.22;74.21;102273.44;4900765;29;20044;-74
2022/01/12 04:01:54;;;;;;;6.18;2.40;;;;;;;2.22;73.55;102276.09;4900208;29;20089;-74
2022/01/12 04:04:29;;;;;;;5.80;1.77;;;;;;;2.22;73.62;102276.09;4900085;29;20052;-74
2022/01/12 04:09:38;;;;;;;6.55;2.90;;;;;;;2.22;73.67;102265.44;4900000;29;20404;-74
2022/01/12 04:12:04;;;;;;;5.33;2.20;;;;;;;2.24;73.45;102263.53;4900284;29;20100;-74
2022/01/12 04:14:29;;;;;;;5.25;2.10;;;;;;;2.22;73.27;102256.63;4900217;29;20328;-74
2022/01/12 04:16:54;;;;;;;6.15;2.33;;;;;;;2.22;73.43;102260.13;4883456;29;20036;-74
2022/01/12 04:19:20;;;;;;;8.10;2.60;;;;;;;2.26;73.25;102271.41;4899188;29;20555;-73
2022/01/12 04:21:48;;;;;;;3.97;1.52;;;;;;;2.28;73.48;102277.47;4883489;29;20032;-75
2022/01/12 04:24:15;;;;;;;6.68;2.75;;;;;;;2.30;73.44;102279.09;4899744;29;20039;-74
2022/01/12 04:26:40;;;;;;;;;;;;;;;2.33;72.68;102281.50;4900380;29;20036;-74
2022/01/12 04:29:07;;;;;;;5.15;2.08;;;;;;;2.38;72.46;102289.16;4899692;29;19998;-75
2022/01/12 04:31:33;;;;;;;6.10;1.95;;;;;;;2.39;72.55;102286.41;4899953;29;20111;-75
2022/01/12 04:33:59;;;;;;;6.55;3.30;;;;;;;2.36;72.41;102283.09;4883091;29;20152;-74
2022/01/12 04:36:24;;;;;;;5.57;2.45;;;;;;;2.34;72.85;102280.53;4899845;29;20472;-75
2022/01/12 04:38:50;;;;;;;7.72;2.90;;;;;;;2.31;72.78;102272.81;4899739;29;20060;-75
2022/01/12 04:41:15;;;;;;;7.43;2.83;;;;;;;2.31;73.21;102282.59;4899921;29;20116;-75
2022/01/12 04:43:43;;;;;;;5.67;2.23;;;;;;;2.27;72.99;102281.94;4899632;29;20033;-75
2022/01/12 04:46:22;;;;;;;8.07;2.17;;;;;;;2.26;73.27;102282.91;4899567;29;20716;-75
2022/01/12 04:48:52;;;;;;;6.70;2.50;;;;;;;2.27;73.71;102286.41;4899559;29;20052;-75
2022/01/12 04:51:18;;;;;;;7.50;2.90;;;;;;;2.28;73.21;102285.47;4899255;29;20032;-75
2022/01/12 04:53:44;;;;;;;7.25;2.92;;;;;;;2.35;73.23;102298.22;4899446;29;20400;-74
2022/01/12 04:56:10;;;;;;;;;;;;;;;2.33;73.34;102302.78;4882564;29;20047;-74
2022/01/12 04:58:35;;;;;;;7.80;2.45;;;;;;;2.33;73.05;102299.31;4899016;29;19915;-76
2022/01/12 05:01:08;;;;;;;5.53;2.13;;;;;;;2.30;73.11;102295.03;4899195;29;20029;-75
2022/01/12 05:06:44;;;;;;;6.07;2.20;;;;;;;2.26;73.28;102296.19;4898592;29;20059;-74
2022/01/12 05:09:30;;;;;;;5.47;1.95;;;;;;;2.28;73.43;102296.94;4898970;29;20119;-75
2022/01/12 05:14:48;;;;;;;7.25;2.45;;;;;;;2.31;73.15;102298.56;4869453;29;20128;-75
2022/01/12 05:17:14;;;;;;;7.40;2.47;;;;;;;2.29;72.86;102298.66;4899090;29;20036;-76
2022/01/12 05:19:39;;;;;;;6.30;2.73;;;;;;;2.33;73.09;102296.63;4898957;29;20029;-75
2022/01/12 05:22:05;;;;;;;7.10;2.60;;;;;;;2.33;73.19;102293.97;4897938;29;20345;-74
2022/01/12 05:24:30;;;;;;;7.20;2.30;;;;;;;2.36;72.91;102283.94;4881948;29;20597;-75
2022/01/12 05:26:55;;;;;;;5.30;2.20;;;;;;;2.42;72.66;102282.69;4898525;29;20436;-76
2022/01/12 05:29:21;;;;;;;7.03;2.70;;;;;;;2.42;72.29;102290.66;4898656;29;20044;-75
2022/01/12 05:31:46;;;;;;;6.63;2.60;;;;;;;2.43;71.78;102287.91;4897825;29;20276;-76
2022/01/12 05:34:12;;;;;;;8.63;2.42;;;;;;;2.44;72.04;102294.94;4898269;29;20043;-75
2022/01/12 05:36:37;;;;;;;6.10;2.67;;;;;;;2.48;71.45;102298.22;4898309;29;20062;-75
2022/01/12 05:39:03;;;;;;;6.68;2.25;;;;;;;2.48;71.75;102300.03;4898596;29;20039;-75
2022/01/12 05:41:28;;;;;;;5.60;2.33;;;;;;;2.48;71.63;102305.38;4898325;29;20372;-75
2022/01/12 05:43:54;;;;;;;6.70;2.35;;;;;;;2.46;71.78;102304.63;4898648;29;20032;-75
2022/01/12 05:46:24;;;;;;;5.93;2.38;;;;;;;2.45;71.77;102314.41;4898439;29;20041;-75
2022/01/12 05:51:33;;;;;;;5.75;2.00;;;;;;;2.47;71.80;102311.66;4898288;29;20124;-75
2022/01/12 05:53:59;;;;;;;7.10;2.57;;;;;;;2.44;71.48;102297.59;4898113;29;20068;-76
2022/01/12 05:56:24;;;;;;;7.30;2.55;;;;;;;2.44;71.82;102294.06;4898346;29;20276;-76
2022/01/12 05:58:50;;;;;;;6.25;2.60;;;;;;;2.45;71.57;102303.75;4898345;29;20044;-75
2022/01/12 06:01:16;;;;;;;8.10;3.40;;;;;;;2.50;71.90;102304.31;4898386;29;20048;-75
2022/01/12 06:03:42;;;;;;;7.38;2.92;;;;;;;2.43;71.55;102298.53;4897963;29;20047;-75
2022/01/12 06:06:07;;;;;;;5.88;2.78;;;;;;;2.42;71.84;102293.31;4897969;29;20032;-75
2022/01/12 06:08:33;;;;;;;8.23;3.17;;;;;;;2.39;71.84;102291.72;4879566;29;20136;-75
2022/01/12 06:10:58;;;;;;;5.82;2.60;;;;;;;2.40;71.91;102295.25;4862871;29;20040;-74
2022/01/12 06:13:23;;;;;;;7.90;3.15;;;;;;;2.35;72.03;102297.34;4862643;29;20049;-74
2022/01/12 06:15:49;;;;;;;7.77;2.97;;;;;;;2.34;71.92;102299.16;4879208;29;20060;-75
2022/01/12 06:18:14;;;;;;;6.93;2.97;;;;;;;2.36;72.30;102305.25;4862515;29;20029;-75
2022/01/12 06:20:39;;;;;;;7.97;3.40;;;;;;;2.33;72.22;102312.59;4879278;29;20280;-74
2022/01/12 06:23:05;;;;;;;6.18;2.65;;;;;;;2.35;72.51;102322.16;4879622;29;20120;-74
2022/01/12 06:25:30;;;;;;;6.60;2.80;;;;;;;2.39;72.31;102315.66;4879378;29;20469;-75
2022/01/12 06:28:08;;;;;;;7.23;2.67;;;;;;;2.38;72.35;102321.94;4879107;29;20060;-75
2022/01/12 06:33:18;;;;;;;12.00;3.40;;;;;;;2.41;72.14;102324.41;4879561;29;20118;-75
2022/01/12 06:35:43;;;;;;;6.43;2.90;;;;;;;2.44;72.42;102321.53;4880371;29;20493;-75
2022/01/12 06:38:08;;;;;;;9.90;3.70;;;;;;;2.46;72.23;102321.44;4882338;29;20264;-74
2022/01/12 06:40:34;;;;;;;9.55;2.60;;;;;;;2.43;71.85;102322.50;4881815;29;20037;-75
2022/01/12 06:43:01;;;;;;;7.82;2.83;;;;;;;2.41;72.24;102331.53;4884793;29;20043;-75
2022/01/12 06:45:27;;;;;;;7.35;3.17;;;;;;;2.43;72.37;102333.13;4887054;29;20079;-75
2022/01/12 06:47:52;;;;;;;7.55;2.80;;;;;;;2.44;72.11;102331.31;4883917;29;20037;-75
2022/01/12 06:50:17;;;;;;;7.85;3.22;;;;;;;2.40;72.42;102328.03;4883632;29;20461;-75
2022/01/12 06:52:43;;;;;;;8.73;2.83;;;;;;;2.43;72.59;102340.25;4882584;29;20032;-75
2022/01/12 06:55:08;;;;;;;7.97;2.80;;;;;;;2.41;72.25;102332.38;4867445;29;20037;-75
2022/01/12 06:57:34;;;;;;;8.02;2.85;;;;;;;2.43;72.31;102334.94;4866101;29;20764;-75
2022/01/12 06:59:59;;;;;;;7.78;3.00;;;;;;;2.46;72.38;102339.22;4882897;29;20370;-75
2022/01/12 07:02:25;;;;;;;6.68;2.78;;;;;;;2.44;72.21;102342.81;4883588;29;20473;-75
2022/01/12 07:04:50;;;;;;;6.97;2.75;;;;;;;2.45;72.19;102341.00;4882560;29;20166;-75
2022/01/12 07:07:15;;;;;;;11.85;3.13;;;;;;;2.43;72.25;102349.09;4891388;29;20161;-75
2022/01/12 07:09:40;;;;;;;12.23;3.43;;;;;;;2.42;72.38;102357.19;4901415;29;20396;-75
2022/01/12 07:12:06;;;;;;;5.83;2.43;;;;;;;2.45;72.43;102359.63;4901163;29;20527;-75
2022/01/12 07:14:32;;;;;;;7.05;2.75;;;;;;;2.43;72.32;102365.06;4900866;29;20685;-75
2022/01/12 07:16:58;;;;;;;7.68;2.78;;;;;;;2.41;72.61;102360.78;4900541;29;20368;-75
2022/01/12 07:19:24;;;;;;;8.45;3.30;;;;;;;2.44;72.73;102365.91;4901049;29;20032;-75
2022/01/12 07:21:49;;;;;;;7.10;3.38;;;;;;;2.50;73.78;102385.94;4901023;29;20387;-75
2022/01/12 07:24:15;;;;;;;9.75;3.15;;;;;;;2.63;72.89;102389.44;4901119;29;20037;-75
2022/01/12 07:26:40;;;;;;;10.32;3.15;;;;;;;2.71;73.61;102387.09;4900975;29;20041;-74
2022/01/12 07:29:06;;;;;;;8.80;3.45;;;;;;;2.77;73.79;102398.19;4901011;29;20491;-75
2022/01/12 07:31:32;;;;;;;8.32;3.38;;;;;;;2.66;72.42;102405.22;4900728;29;20033;-75
2022/01/12 07:33:57;;;;;;;7.55;2.88;;;;;;;2.72;72.00;102407.44;4900306;29;20041;-75
2022/01/12 07:36:23;;;;;;;9.25;3.90;;;;;;;2.63;71.87;102416.06;4900617;29;20036;-75
2022/01/12 07:38:50;;;;;;;6.38;3.10;;;;;;;2.61;72.34;102417.97;4900388;29;20040;-75
2022/01/12 07:41:16;;;;;;;6.75;3.20;;;;;;;2.59;72.40;102419.88;4900412;29;20044;-74
2022/01/12 07:43:41;;;;;;;8.52;3.25;;;;;;;2.68;72.84;102424.59;4900290;29;20066;-73
2022/01/12 07:46:06;;;;;;;8.77;2.85;;;;;;;2.76;72.07;102424.91;4901065;29;20044;-74
2022/01/12 07:48:32;;;;;;;11.63;3.88;;;;;;;2.92;71.98;102433.53;4900354;29;20041;-73
2022/01/12 07:50:57;;;;;;;7.03;2.47;;;;;;;2.62;71.79;102436.50;4883466;29;20081;-73
2022/01/12 07:53:23;;;;;;;9.30;3.53;;;;;;;2.52;72.84;102439.88;4900082;29;20483;-73
2022/01/12 07:55:49;;;;;;;9.35;3.13;;;;;;;2.63;72.57;102453.31;4899136;29;20044;-73
2022/01/12 07:58:14;;;;;;;7.75;2.97;;;;;;;2.85;72.33;102458.06;4900095;29;20471;-73
2022/01/12 08:00:39;;;;;;;8.52;3.45;;;;;;;2.88;72.55;102455.16;4883133;29;20451;-73
2022/01/12 08:03:05;;;;;;;10.98;3.88;;;;;;;2.69;72.42;102466.19;4899811;29;20547;-73
2022/01/12 08:05:30;;;;;;;10.32;4.68;;;;;;;2.90;73.61;102453.22;4899616;29;20488;-73
2022/01/12 08:07:56;;;;;;;8.23;3.07;;;;;;;2.84;72.24;102443.88;4899982;29;20072;-73
2022/01/12 08:10:22;;;;;;;7.83;3.10;;;;;;;2.75;72.63;102439.19;4899860;29;20273;-73
2022/01/12 08:12:47;;;;;;;8.23;3.25;;;;;;;2.68;73.75;102440.56;4899749;29;20337;-73
2022/01/12 08:15:13;;;;;;;8.23;3.55;;;;;;;2.55;73.37;102437.00;4899613;29;20037;-73
2022/01/12 08:17:39;;;;;;;8.40;3.63;;;;;;;2.56;74.44;102442.22;4900019;29;20044;-73
2022/01/12 08:20:08;;;;;;;11.38;4.15;;;;;;;2.57;74.54;102456.41;4900123;29;20244;-73
2022/01/12 08:22:34;;;;;;;8.88;3.83;;;;;;;2.70;75.74;102452.78;4883684;29;20400;-73
2022/01/12 08:24:59;;;;;;;10.38;4.00;;;;;;;2.75;73.24;102456.00;4900170;29;20033;-73
2022/01/12 08:27:24;;;;;;;11.75;4.47;;;;;;;2.44;74.65;102457.22;4899868;29;20103;-73
2022/01/12 08:29:53;;;;;;;8.40;3.67;;;;;;;2.30;75.40;102453.78;4883441;29;20055;-74
2022/01/12 08:32:18;;;;;;;12.30;4.53;;;;;;;2.30;77.60;102457.31;4900009;29;20143;-73
2022/01/12 08:34:44;;;;;;;12.23;4.75;;;;;;;2.22;76.62;102448.97;4899974;29;20049;-73
2022/01/12 08:37:09;;;;;;;14.38;4.47;;;;;;;2.17;76.82;102460.84;4899505;29;20047;-75
2022/01/12 08:39:35;;;;;;;11.57;4.72;;;;;;;2.10;77.30;102463.06;4899360;29;20037;-73
2022/01/12 08:42:00;;;;;;;12.70;5.10;;;;;;;2.07;77.74;102466.78;4882710;29;20037;-73
2022/01/12 08:44:26;;;;;;;10.60;4.45;;;;;;;2.05;77.94;102465.16;4900282;29;20269;-73
2022/01/12 08:46:51;;;;;;;19.77;6.10;;;;;;;2.02;78.34;102468.03;4900102;29;20380;-73
2022/01/12 08:49:16;;;;;;;12.65;4.45;;;;;;;2.07;78.67;102468.59;4899885;29;20033;-73
2022/01/12 08:51:42;;;;;;;12.90;4.45;;;;;;;2.17;78.44;102475.00;4899943;29;20091;-75
2022/01/12 08:54:07;;;;;;;14.40;4.63;;;;;;;2.18;78.55;102481.16;4899149;29;20035;-73
2022/01/12 08:56:33;;;;;;;13.33;4.77;;;;;;;2.15;78.62;102486.72;4898940;29;20033;-74
2022/01/12 08:58:58;;;;;;;12.10;4.72;;;;;;;2.02;79.06;102497.28;4899542;29;20269;-73
2022/01/12 09:01:24;;;;;;;14.95;5.50;;;;;;;1.91;79.69;102500.63;4898920;29;20540;-73
2022/01/12 09:03:49;;;;;;;15.95;5.90;;;;;;;1.92;79.63;102506.81;4898961;29;20042;-73
2022/01/12 09:06:15;;;;;;;13.27;5.70;;;;;;;1.95;80.29;102514.59;4898234;29;20044;-73
2022/01/12 09:08:42;;;;;;;12.70;5.18;;;;;;;2.01;80.48;102519.50;4898934;29;20131;-73
2022/01/12 09:11:08;;;;;;;20.67;6.88;;;;;;;2.04;79.56;102516.66;4898685;29;20064;-73
2022/01/12 09:13:34;;;;;;;14.07;4.97;;;;;;;2.05;79.69;102526.34;4899099;29;20100;-73
2022/01/12 09:16:03;;;;;;;13.70;5.60;;;;;;;2.03;80.07;102531.75;4898639;29;20112;-73
2022/01/12 09:18:28;;;;;;;13.35;4.50;;;;;;;2.08;79.83;102534.13;4898908;29;20115;-74
2022/01/12 09:20:54;;;;;;;15.68;5.60;;;;;;;2.05;80.09;102534.31;4898473;29;20449;-73
2022/01/12 09:23:19;;;;;;;18.07;5.80;;;;;;;2.07;80.41;102537.72;4898679;29;20044;-74
2022/01/12 09:25:45;;;;;;;12.20;5.22;;;;;;;2.02;80.69;102531.84;4898476;29;20344;-73
2022/01/12 09:28:11;;;;;;;18.30;6.72;;;;;;;2.04;80.67;102543.22;4898776;29;20037;-73
2022/01/12 09:30:37;;;;;;;15.18;4.78;;;;;;;1.97;81.08;102528.66;4898323;29;20099;-73
2022/01/12 09:33:03;;;;;;;19.05;6.13;;;;;;;1.91;81.24;102537.84;4882055;29;20067;-76
2022/01/12 09:35:29;;;;;;;17.38;6.35;;;;;;;1.91;81.54;102535.19;4898505;29;20032;-75
2022/01/12 09:37:55;;;;;;;16.40;4.55;;;;;;;1.83;81.75;102534.81;4882052;29;20040;-75
2022/01/12 09:40:21;;;;;;;18.08;6.10;;;;;;;1.78;82.56;102533.41;4898248;29;20396;-76
2022/01/12 09:42:48;;;;;;;22.05;6.32;;;;;;;1.70;83.25;102532.06;4898639;29;20045;-75
2022/01/12 09:45:16;;;;;;;18.20;7.53;;;;;;;1.74;83.88;102543.38;4898701;29;20164;-75
2022/01/12 09:47:43;;;;;;;17.92;6.18;;;;;;;1.88;83.68;102534.53;4881190;29;20037;-75
2022/01/12 09:50:11;;;;;;;20.05;6.05;;;;;;;1.92;83.01;102542.22;4898437;29;20116;-75
2022/01/12 09:52:37;;;;;;;20.38;7.75;;;;;;;1.90;83.18;102537.94;4881471;29;20185;-75
2022/01/12 09:55:04;;;;;;;17.95;6.53;;;;;;;1.90;83.21;102537.94;4897842;29;20081;-75
2022/01/12 09:57:29;;;;;;;23.52;6.55;;;;;;;1.83;83.30;102531.28;4898004;29;20039;-75
2022/01/12 09:59:54;;;;;;;19.48;6.45;;;;;;;1.84;83.80;102533.88;4898445;29;20036;-75
2022/01/12 10:02:21;;;;;;;22.37;7.03;;;;;;;1.85;83.85;102538.22;4881557;29;20036;-75
2022/01/12 10:04:47;;;;;;;18.63;7.80;;;;;;;1.87;83.99;102535.47;4898494;29;20257;-75
2022/01/12 10:07:13;;;;;;;22.48;7.28;;;;;;;1.91;83.94;102534.34;4872634;29;20189;-76
2022/01/12 10:09:44;;;;;;;23.50;8.43;;;;;;;1.96;84.08;102535.75;4879707;29;20040;-75
2022/01/12 10:12:18;;;;;;;23.80;8.32;;;;;;;2.04;83.86;102532.59;4879447;29;20373;-75
2022/01/12 10:14:48;;;;;;;20.77;6.22;;;;;;;2.07;83.69;102527.09;4879143;29;20120;-75
2022/01/12 10:17:14;;;;;;;17.90;6.57;;;;;;;2.14;83.72;102525.75;4878776;29;20029;-75
2022/01/12 10:19:40;;;;;;;;;;;;;;;2.21;83.51;102527.03;4879785;29;20029;-75
2022/01/12 10:22:16;;;;;;;32.25;6.38;;;;;;;2.33;83.66;102533.41;4879109;29;19916;-73
2022/01/12 10:24:44;;;;;;;19.35;6.80;;;;;;;2.43;83.48;102543.31;4862601;29;20033;-73
2022/01/12 10:27:20;;;;;;;23.42;7.10;;;;;;;2.54;82.88;102549.72;4879338;29;20045;-73
2022/01/12 10:29:56;;;;;;;27.03;8.07;;;;;;;2.46;82.63;102547.59;4879207;29;20063;-74
2022/01/12 10:32:22;;;;;;;20.00;6.90;;;;;;;2.40;83.63;102546.19;4879296;29;20057;-73
2022/01/12 10:34:51;;;;;;;20.45;7.13;;;;;;;2.50;83.14;102548.25;4879379;29;20037;-73
2022/01/12 10:37:22;;;;;;;18.52;8.27;;;;;;;2.55;83.21;102554.97;4879036;29;20036;-73
2022/01/12 10:39:49;;;;;;;19.50;6.78;;;;;;;2.56;82.98;102555.81;4878949;29;20396;-75
2022/01/12 10:42:23;;;;;;;23.35;8.50;;;;;;;2.56;83.22;102558.47;4879085;29;20041;-73
2022/01/12 10:44:51;;;;;;;27.42;10.25;;;;;;;2.34;84.77;102561.69;4879445;29;20097;-73
2022/01/12 10:47:29;;;;;;;30.02;9.07;;;;;;;2.46;84.50;102566.22;4879188;29;20055;-73
2022/01/12 10:49:54;;;;;;;23.63;7.70;;;;;;;2.53;84.21;102559.53;4879076;29;20044;-74
2022/01/12 10:52:21;;;;;;;31.83;9.67;;;;;;;2.62;84.03;102566.06;4862430;29;20037;-73
2022/01/12 10:54:51;;;;;;;26.17;8.93;;;;;;;2.56;84.49;102561.13;4879139;29;20502;-73
2022/01/12 10:57:25;;;;;;;26.15;10.25;;;;;;;2.62;83.71;102564.25;4878726;29;20041;-74
2022/01/12 11:00:06;;;;;;;26.20;7.68;;;;;;;2.59;83.80;102566.25;4878871;29;20037;-73
2022/01/12 11:02:33;;;;;;;27.63;8.35;;;;;;;2.61;84.21;102575.00;4862211;29;20037;-74
2022/01/12 11:04:59;;;;;;;19.23;7.03;;;;;;;2.58;83.87;102570.72;4878646;29;20159;-74
2022/01/12 11:07:26;;;;;;;30.48;8.68;;;;;;;2.57;83.79;102569.03;4888741;29;20053;-74
2022/01/12 11:09:58;;;;;;;28.73;7.43;;;;;;;2.52;84.29;102576.44;4881239;29;20361;-74
2022/01/12 11:12:24;;;;;;;32.08;8.80;;;;;;;2.43;84.93;102569.06;4897915;29;20357;-74
2022/01/12 11:14:50;;;;;;;33.45;8.95;;;;;;;2.53;85.05;102571.97;4897538;29;20039;-74
2022/01/12 11:17:16;;;;;;;34.63;9.13;;;;;;;2.39;85.10;102564.91;4897683;29;20047;-74
2022/01/12 11:19:52;;;;;;;32.17;9.63;;;;;;;2.32;85.40;102569.78;4897489;29;20036;-74
2022/01/12 11:22:43;;;;;;;28.75;8.65;;;;;;;2.32;85.68;102560.94;4897483;29;20480;-74
2022/01/12 11:25:24;;;;;;;24.10;8.50;;;;;;;2.23;86.12;102562.38;4868423;29;20044;-74
2022/01/12 11:28:18;;;;;;;24.45;9.95;;;;;;;2.26;86.21;102567.50;4897785;29;20036;-74
2022/01/12 11:30:48;;;;;;;31.40;10.07;;;;;;;2.20;86.51;102569.69;4891709;29;20051;-74
2022/01/12 11:33:14;;;;;;;31.02;10.30;;;;;;;2.14;87.68;102570.97;4883965;29;20444;-73
2022/01/12 11:35:43;;;;;;;29.00;9.00;;;;;;;2.12;87.59;102586.16;4884040;29;20033;-74
2022/01/12 11:38:20;;;;;;;27.83;9.80;;;;;;;2.17;88.48;102580.53;4900866;29;20036;-74
2022/01/12 11:40:46;;;;;;;31.73;10.57;;;;;;;2.07;88.29;102581.13;4900927;29;20064;-74
2022/01/12 11:43:30;;;;;;;34.17;10.45;;;;;;;2.08;88.47;102572.19;4900717;29;20500;-74
2022/01/12 11:46:09;;;;;;;43.17;11.18;;;;;;;2.08;88.81;102571.34;4900635;29;20441;-74
2022/01/12 11:48:45;;;;;;;40.50;11.65;;;;;;;1.96;89.44;102572.13;4900532;29;20495;-75
2022/01/12 11:51:13;;;;;;;39.45;9.90;;;;;;;1.97;90.04;102568.53;4900443;29;20465;-75
2022/01/12 11:53:53;;;;;;;49.97;12.73;;;;;;;2.04;89.98;102573.34;4900545;29;20084;-74
2022/01/12 11:56:27;;;;;;;33.28;11.70;;;;;;;2.21;90.32;102564.28;4900616;29;20108;-73
2022/01/12 11:59:13;;;;;;;41.25;11.48;;;;;;;2.10;89.83;102564.13;4900648;29;20476;-74
2022/01/12 12:01:40;;;;;;;49.83;11.82;;;;;;;2.08;89.91;102568.69;4899771;29;20499;-74
2022/01/12 12:04:06;;;;;;;44.25;13.30;;;;;;;2.11;90.18;102570.28;4900790;29;20059;-73
2022/01/12 12:06:32;;;;;;;43.08;11.98;;;;;;;2.09;90.42;102573.91;4884035;29;20400;-73
2022/01/12 12:09:03;;;;;;;37.92;11.48;;;;;;;1.99;90.60;102563.94;4906146;29;20055;-75
2022/01/12 12:11:30;;;;;;;44.83;13.27;;;;;;;1.95;90.84;102565.97;4905094;29;20476;-75
2022/01/12 12:14:07;;;;;;;39.28;12.05;;;;;;;1.91;91.02;102560.94;4902468;29;20087;-75
2022/01/12 12:16:36;;;;;;;38.90;11.32;;;;;;;1.98;91.55;102560.41;4900920;29;20032;-75
2022/01/12 12:19:03;;;;;;;46.28;13.75;;;;;;;2.07;91.90;102559.00;4903568;29;20086;-74
2022/01/12 12:21:30;;;;;;;43.72;13.25;;;;;;;2.15;91.69;102567.31;4905878;29;20494;-73
2022/01/12 12:24:14;;;;;;;45.67;12.40;;;;;;;2.20;91.32;102569.69;4900751;29;20116;-75
2022/01/12 12:26:44;;;;;;;44.15;12.77;;;;;;;2.23;91.28;102570.34;4900814;29;20119;-75
2022/01/12 12:29:09;;;;;;;34.88;10.48;;;;;;;2.27;90.93;102579.84;4900438;29;20033;-76
2022/01/12 12:31:35;;;;;;;38.58;11.90;;;;;;;2.23;90.96;102572.16;4900489;29;20043;-75
2022/01/12 12:34:05;;;;;;;39.67;12.03;;;;;;;2.25;91.32;102580.91;4900491;29;20039;-74
2022/01/12 12:36:31;;;;;;;48.63;13.55;;;;;;;2.37;91.11;102578.28;4900148;29;20323;-74
2022/01/12 12:39:07;;;;;;;;;;;;;;;2.43;91.11;102583.22;4883628;29;20029;-76
2022/01/12 12:41:40;;;;;;;41.90;11.95;;;;;;;2.41;91.03;102582.47;4899422;29;19919;-75
2022/01/12 12:44:07;;;;;;;40.75;13.00;;;;;;;2.50;91.05;102582.84;4900058;29;20039;-75
2022/01/12 12:46:32;;;;;;;37.17;12.63;;;;;;;2.60;90.50;102579.47;4899965;29;20036;-74